Time;durP1;ratioP1;P1;durP2;ratioP2;P2;SDS_P1;SDS_P2;PMS_P1;PMS_P2;Temp;Humidity;BMP_temperature;BMP_pressure;BME280_temperature;BME280_humidity;BME280_pressure;Samples;Min_cycle;Max_cycle;Signal;HPM_P1;HPM_P2
2023/01/19 00:00:14;;;;;;;2.03;1.25;;;20.60;30.00;;;;;;5032537;28;20025;-55
2023/01/19 00:02:42;;;;;;;2.85;1.50;;;20.60;30.00;;;;;;5029372;28;20037;-54
2023/01/19 00:05:08;;;;;;;2.15;1.35;;;20.60;30.00;;;;;;5030577;28;20033;-55
2023/01/19 00:07:34;;;;;;;1.98;1.35;;;20.50;30.00;;;;;;5031899;28;20029;-53
2023/01/19 00:10:00;;;;;;;3.00;1.88;;;20.50;30.00;;;;;;5031227;28;20468;-56
2023/01/19 00:12:26;;;;;;;2.78;1.42;;;20.50;30.10;;;;;;5032183;28;20029;-55
2023/01/19 00:14:51;;;;;;;1.88;1.30;;;20.50;30.10;;;;;;5030104;28;20044;-55
2023/01/19 00:17:17;;;;;;;3.55;1.70;;;20.50;30.10;;;;;;5033539;28;20029;-55
2023/01/19 00:19:43;;;;;;;2.60;1.35;;;20.50;30.10;;;;;;5030135;28;20462;-54
2023/01/19 00:22:09;;;;;;;2.83;1.50;;;20.50;30.10;;;;;;5028687;28;20025;-53
2023/01/19 00:24:35;;;;;;;2.45;1.48;;;20.50;30.20;;;;;;5031172;28;20029;-55
2023/01/19 00:27:02;;;;;;;2.63;1.30;;;20.50;30.20;;;;;;5031761;28;20041;-56
2023/01/19 00:29:32;;;;;;;2.97;1.30;;;20.50;30.20;;;;;;5032329;28;20035;-52
2023/01/19 00:32:03;;;;;;;2.58;1.52;;;20.50;30.20;;;;;;5018941;28;20057;-56
2023/01/19 00:34:48;;;;;;;2.20;1.48;;;20.40;30.20;;;;;;5032078;28;20396;-57
2023/01/19 00:37:15;;;;;;;;;;;20.40;30.20;;;;;;5030610;28;20417;-54
2023/01/19 00:39:42;;;;;;;2.50;1.30;;;20.40;30.30;;;;;;5030136;28;20336;-52
2023/01/19 00:44:54;;;;;;;3.53;1.52;;;20.40;30.40;;;;;;5032099;28;20464;-54
2023/01/19 00:47:21;;;;;;;2.92;1.67;;;20.40;30.40;;;;;;5030149;28;20088;-53
2023/01/19 00:49:47;;;;;;;2.78;1.50;;;20.40;30.40;;;;;;5029539;28;20028;-53
2023/01/19 00:52:13;;;;;;;3.55;1.60;;;20.40;30.40;;;;;;5031869;28;20017;-53
2023/01/19 00:54:39;;;;;;;2.65;1.67;;;20.40;30.50;;;;;;5028103;28;20445;-53
2023/01/19 00:57:05;;;;;;;2.20;1.40;;;20.40;30.50;;;;;;5028842;28;20433;-56
2023/01/19 00:59:31;;;;;;;1.90;1.30;;;20.30;30.50;;;;;;5030819;28;20025;-51
2023/01/19 01:01:57;;;;;;;2.00;1.30;;;20.30;30.50;;;;;;5030012;28;20183;-55
2023/01/19 01:04:23;;;;;;;2.92;1.50;;;20.40;30.50;;;;;;5030065;28;20026;-55
2023/01/19 01:06:49;;;;;;;2.85;1.73;;;20.30;30.50;;;;;;5030441;28;20030;-56
2023/01/19 01:09:14;;;;;;;2.80;1.45;;;20.30;30.50;;;;;;5025197;28;20041;-53
2023/01/19 01:11:41;;;;;;;2.38;1.45;;;20.30;31.20;;;;;;5030849;28;20045;-55
2023/01/19 01:14:09;;;;;;;2.55;1.40;;;20.30;30.60;;;;;;5027833;28;20029;-56
2023/01/19 01:16:34;;;;;;;4.07;1.55;;;20.30;30.60;;;;;;5032087;28;20040;-54
2023/01/19 01:19:00;;;;;;;2.42;1.60;;;20.30;30.60;;;;;;5030153;28;20045;-53
2023/01/19 01:21:26;;;;;;;2.10;1.38;;;20.30;30.60;;;;;;5029786;28;20123;-53
2023/01/19 01:23:52;;;;;;;2.30;1.33;;;20.20;30.60;;;;;;5028853;28;20353;-52
2023/01/19 01:26:18;;;;;;;2.35;1.30;;;20.20;30.60;;;;;;5031417;28;20132;-53
2023/01/19 01:28:44;;;;;;;1.88;1.30;;;20.20;30.60;;;;;;5029295;28;20520;-54
2023/01/19 01:31:09;;;;;;;3.20;1.58;;;20.20;30.60;;;;;;5031140;28;20037;-51
2023/01/19 01:33:35;;;;;;;3.10;1.55;;;20.20;30.60;;;;;;5032361;28;20040;-54
2023/01/19 01:36:01;;;;;;;2.20;1.50;;;20.20;30.80;;;;;;5031829;28;20025;-52
2023/01/19 01:38:27;;;;;;;2.85;1.90;;;20.20;30.70;;;;;;5030623;28;20041;-52
2023/01/19 01:40:53;;;;;;;3.25;1.38;;;20.20;30.70;;;;;;5031131;28;20404;-56
2023/01/19 01:43:21;;;;;;;2.50;1.48;;;20.20;30.70;;;;;;5030849;28;20108;-55
2023/01/19 01:45:47;;;;;;;2.17;1.40;;;20.20;30.80;;;;;;5031010;28;20108;-51
2023/01/19 01:48:29;;;;;;;2.53;1.42;;;20.20;30.80;;;;;;5030214;28;20105;-53
2023/01/19 01:51:24;;;;;;;2.08;1.00;;;20.20;30.80;;;;;;5030497;28;20051;-54
2023/01/19 01:54:25;;;;;;;1.80;1.08;;;20.10;30.80;;;;;;5031789;28;20087;-52
2023/01/19 01:56:54;;;;;;;1.67;1.20;;;20.10;30.80;;;;;;5030524;28;20360;-54
2023/01/19 01:59:37;;;;;;;2.47;1.40;;;20.10;30.90;;;;;;5028735;28;20129;-54
2023/01/19 02:05:03;;;;;;;2.17;1.30;;;20.10;30.90;;;;;;5027662;28;20437;-57
2023/01/19 02:13:20;;;;;;;;;;;20.10;30.90;;;;;;5030520;28;20108;-54
2023/01/19 02:15:56;;;;;;;2.28;1.20;;;20.10;30.90;;;;;;5028520;28;20000;-52
2023/01/19 02:18:25;;;;;;;2.78;1.50;;;20.00;30.90;;;;;;5027888;28;20041;-53
2023/01/19 02:21:25;;;;;;;2.15;1.10;;;20.00;30.90;;;;;;5019099;28;20072;-55
2023/01/19 02:23:56;;;;;;;2.80;1.10;;;20.00;30.90;;;;;;5027443;28;20048;-51
2023/01/19 02:26:25;;;;;;;1.73;1.02;;;20.00;30.90;;;;;;5030825;28;20030;-53
2023/01/19 02:28:58;;;;;;;1.48;0.98;;;20.00;30.90;;;;;;5017295;28;20419;-56
2023/01/19 02:31:26;;;;;;;1.88;1.20;;;20.00;30.90;;;;;;5026766;28;20405;-53
2023/01/19 02:33:53;;;;;;;1.30;0.98;;;20.00;30.90;;;;;;5016067;28;20076;-52
2023/01/19 02:36:24;;;;;;;1.40;1.00;;;20.00;30.80;;;;;;5027112;28;20037;-55
2023/01/19 02:38:55;;;;;;;2.45;1.05;;;19.90;30.80;;;;;;5021778;28;20044;-53
2023/01/19 02:41:25;;;;;;;1.45;1.08;;;20.00;30.80;;;;;;5030802;28;20036;-54
2023/01/19 02:43:52;;;;;;;1.27;1.00;;;19.90;30.80;;;;;;5029917;28;20045;-52
2023/01/19 02:46:18;;;;;;;2.28;1.30;;;19.90;30.70;;;;;;5026222;28;20021;-57
2023/01/19 02:48:44;;;;;;;1.85;1.10;;;19.90;30.70;;;;;;5028793;28;20017;-52
2023/01/19 02:51:16;;;;;;;1.38;1.02;;;19.90;30.70;;;;;;5029201;28;20037;-53
2023/01/19 02:53:54;;;;;;;1.02;0.90;;;19.90;30.70;;;;;;5025706;28;20100;-55
2023/01/19 02:56:47;;;;;;;2.15;1.15;;;19.90;30.70;;;;;;5025448;28;20041;-54
2023/01/19 02:59:36;;;;;;;1.55;0.90;;;19.90;30.70;;;;;;5032329;28;20030;-55
2023/01/19 03:02:02;;;;;;;1.55;1.02;;;19.90;30.70;;;;;;5011359;28;20029;-52
2023/01/19 03:05:10;;;;;;;1.40;0.85;;;19.90;30.70;;;;;;5013108;28;20068;-57
2023/01/19 03:07:54;;;;;;;2.75;1.42;;;19.90;30.70;;;;;;4994162;28;20464;-56
2023/01/19 03:10:57;;;;;;;1.35;0.80;;;19.90;30.80;;;;;;5027882;28;20043;-51
2023/01/19 03:13:52;;;;;;;1.27;0.90;;;19.80;30.70;;;;;;5027881;28;20040;-52
2023/01/19 03:16:30;;;;;;;1.20;0.80;;;19.80;30.70;;;;;;5026900;28;20037;-54
2023/01/19 03:19:07;;;;;;;1.55;0.80;;;19.80;30.80;;;;;;5033657;28;20060;-53
2023/01/19 03:21:35;;;;;;;1.10;0.80;;;19.80;30.80;;;;;;5031584;28;20017;-53
2023/01/19 03:24:05;;;;;;;1.10;0.60;;;19.80;30.80;;;;;;5021379;28;20487;-57
2023/01/19 03:26:36;;;;;;;0.90;0.70;;;19.80;30.90;;;;;;5031969;28;20444;-51
2023/01/19 03:29:05;;;;;;;0.63;0.60;;;19.80;30.90;;;;;;5031328;28;20040;-53
2023/01/19 03:31:33;;;;;;;2.25;0.80;;;19.80;30.90;;;;;;5031012;28;20048;-54
2023/01/19 03:34:04;;;;;;;1.40;0.90;;;19.70;30.80;;;;;;5021361;28;20026;-52
2023/01/19 03:36:44;;;;;;;0.63;0.50;;;19.70;30.80;;;;;;5035633;28;20029;-54
2023/01/19 03:39:13;;;;;;;0.85;0.70;;;19.70;30.80;;;;;;5032717;28;20029;-51
2023/01/19 03:41:41;;;;;;;0.93;0.68;;;19.70;30.80;;;;;;5032806;28;20037;-53
2023/01/19 03:44:10;;;;;;;1.02;0.50;;;19.70;30.80;;;;;;5033249;28;20021;-52
2023/01/19 03:46:37;;;;;;;0.95;0.40;;;19.70;30.80;;;;;;5033194;28;20475;-55
2023/01/19 03:49:03;;;;;;;0.80;0.60;;;19.70;30.90;;;;;;5032749;28;20025;-54
2023/01/19 03:51:34;;;;;;;0.63;0.47;;;19.70;30.90;;;;;;5033277;28;20041;-52
2023/01/19 03:54:00;;;;;;;0.50;0.50;;;19.70;30.90;;;;;;5022403;28;20467;-51
2023/01/19 03:56:26;;;;;;;1.20;0.60;;;19.70;30.90;;;;;;5032723;28;20037;-55
2023/01/19 03:58:51;;;;;;;0.80;0.40;;;19.70;30.90;;;;;;5032051;28;20045;-51
2023/01/19 04:01:21;;;;;;;0.50;0.50;;;19.70;30.90;;;;;;5031509;28;20037;-53
2023/01/19 04:03:48;;;;;;;0.88;0.30;;;19.70;30.90;;;;;;5033390;28;20038;-52
2023/01/19 04:06:15;;;;;;;0.70;0.40;;;19.70;31.00;;;;;;5029226;28;20115;-54
2023/01/19 04:08:40;;;;;;;0.75;0.40;;;19.70;31.00;;;;;;5030771;28;20049;-54
2023/01/19 04:11:07;;;;;;;0.75;0.30;;;19.70;31.10;;;;;;5031444;28;20033;-53
2023/01/19 04:13:33;;;;;;;0.93;0.30;;;19.60;31.10;;;;;;5031947;28;20107;-55
2023/01/19 04:16:03;;;;;;;0.25;0.20;;;19.70;31.10;;;;;;5030465;28;20109;-52
2023/01/19 04:18:30;;;;;;;2.58;0.20;;;19.60;31.10;;;;;;5031918;28;20119;-53
2023/01/19 04:21:04;;;;;;;0.40;0.20;;;19.60;31.20;;;;;;5032975;28;20457;-53
2023/01/19 04:23:31;;;;;;;0.75;0.35;;;19.60;31.20;;;;;;5029798;28;20449;-53
2023/01/19 04:26:05;;;;;;;0.88;0.22;;;19.60;31.30;;;;;;5016186;28;20101;-51
2023/01/19 04:28:32;;;;;;;0.95;0.20;;;19.60;31.30;;;;;;5032064;28;20044;-54
2023/01/19 04:30:57;;;;;;;0.95;0.30;;;19.60;31.40;;;;;;5030011;28;20056;-51
2023/01/19 04:33:24;;;;;;;0.38;0.30;;;19.60;32.00;;;;;;5032637;28;20029;-55
2023/01/19 04:35:51;;;;;;;0.30;0.15;;;19.60;31.40;;;;;;5031348;28;20033;-55
2023/01/19 04:38:18;;;;;;;0.55;0.20;;;19.50;31.30;;;;;;5032296;28;20591;-56
2023/01/19 04:40:45;;;;;;;0.95;0.40;;;19.60;31.50;;;;;;5029317;28;20056;-53
2023/01/19 04:43:11;;;;;;;0.38;0.20;;;19.60;31.40;;;;;;5030347;28;20021;-52
2023/01/19 04:45:37;;;;;;;0.30;0.20;;;19.50;31.40;;;;;;5032882;28;20036;-53
2023/01/19 04:48:04;;;;;;;0.30;0.20;;;19.50;31.30;;;;;;5029047;28;20025;-54
2023/01/19 04:50:30;;;;;;;0.30;0.20;;;19.50;31.30;;;;;;5031661;28;20049;-50
2023/01/19 04:52:56;;;;;;;0.70;0.20;;;19.50;31.30;;;;;;5033021;28;20021;-52
2023/01/19 04:55:22;;;;;;;0.20;0.15;;;19.50;31.30;;;;;;5032238;28;20334;-54
2023/01/19 04:57:48;;;;;;;0.43;0.20;;;19.50;31.30;;;;;;5022641;28;20029;-52
2023/01/19 05:00:14;;;;;;;0.57;0.22;;;19.50;31.30;;;;;;5030412;28;20046;-57
2023/01/19 05:02:44;;;;;;;0.73;0.47;;;19.50;31.40;;;;;;5015407;28;20365;-51
2023/01/19 05:05:10;;;;;;;0.25;0.10;;;19.50;31.40;;;;;;5027706;28;20408;-56
2023/01/19 05:07:36;;;;;;;0.60;0.15;;;19.50;31.40;;;;;;5031465;28;20021;-50
2023/01/19 05:10:03;;;;;;;0.30;0.20;;;19.50;31.50;;;;;;5031981;28;20025;-55
2023/01/19 05:12:29;;;;;;;0.65;0.20;;;19.40;31.40;;;;;;5030672;28;20116;-54
2023/01/19 05:14:55;;;;;;;1.15;0.25;;;19.50;31.50;;;;;;5032153;28;20108;-55
2023/01/19 05:17:21;;;;;;;1.63;0.30;;;19.50;31.50;;;;;;5031479;28;20493;-53
2023/01/19 05:19:47;;;;;;;0.20;0.20;;;19.50;31.60;;;;;;5031645;28;20063;-54
2023/01/19 05:22:13;;;;;;;1.00;0.30;;;19.40;31.50;;;;;;5030175;28;20025;-55
2023/01/19 05:24:39;;;;;;;0.15;0.15;;;19.40;31.60;;;;;;5014167;28;20091;-50
2023/01/19 05:27:05;;;;;;;1.38;0.40;;;19.40;31.60;;;;;;5028985;28;20365;-49
2023/01/19 05:29:31;;;;;;;0.52;0.30;;;19.40;31.60;;;;;;5032529;28;20117;-50
2023/01/19 05:31:57;;;;;;;0.40;0.10;;;19.40;31.60;;;;;;5030116;28;20162;-54
2023/01/19 05:34:23;;;;;;;0.30;0.20;;;19.40;31.60;;;;;;5029031;28;20061;-52
2023/01/19 05:36:50;;;;;;;0.45;0.30;;;19.40;31.60;;;;;;5029133;28;20044;-50
2023/01/19 05:39:16;;;;;;;0.38;0.30;;;19.40;31.70;;;;;;5031669;28;20025;-54
2023/01/19 05:41:44;;;;;;;0.17;0.13;;;19.40;31.70;;;;;;5029577;28;20118;-51
2023/01/19 05:44:10;;;;;;;0.32;0.20;;;19.40;31.70;;;;;;5028249;28;20503;-50
2023/01/19 05:46:36;;;;;;;0.32;0.20;;;19.40;31.80;;;;;;5025026;28;20021;-51
2023/01/19 05:49:03;;;;;;;0.98;0.35;;;19.30;31.70;;;;;;5030360;28;20029;-53
2023/01/19 05:51:34;;;;;;;0.68;0.30;;;19.30;31.70;;;;;;5030900;28;20041;-54
2023/01/19 05:54:07;;;;;;;1.20;0.30;;;19.30;31.80;;;;;;5028896;28;20368;-49
2023/01/19 05:56:34;;;;;;;0.85;0.38;;;19.30;31.80;;;;;;5032825;28;20104;-54
2023/01/19 05:59:00;;;;;;;1.33;0.20;;;19.30;31.80;;;;;;5029219;28;20025;-54
2023/01/19 06:01:26;;;;;;;0.22;0.20;;;19.30;31.80;;;;;;5028419;28;20048;-51
2023/01/19 06:03:52;;;;;;;0.22;0.20;;;19.30;31.80;;;;;;5029828;28;20134;-50
2023/01/19 06:06:18;;;;;;;1.33;0.32;;;19.30;31.90;;;;;;5030972;28;20049;-52
2023/01/19 06:08:44;;;;;;;0.50;0.30;;;19.30;31.90;;;;;;5026484;28;20698;-53
2023/01/19 06:11:11;;;;;;;0.70;0.20;;;19.30;31.90;;;;;;5028273;28;20350;-54
2023/01/19 06:13:38;;;;;;;0.63;0.30;;;19.30;31.90;;;;;;5023251;28;20029;-50
2023/01/19 06:16:05;;;;;;;0.63;0.30;;;19.30;31.90;;;;;;5031320;28;20025;-54
2023/01/19 06:18:32;;;;;;;0.77;0.30;;;19.30;31.90;;;;;;5027068;28;20046;-57
2023/01/19 06:20:57;;;;;;;0.98;0.35;;;19.30;32.00;;;;;;5029970;28;20072;-52
2023/01/19 06:23:24;;;;;;;1.17;0.35;;;19.30;32.00;;;;;;5028979;28;20049;-53
2023/01/19 06:25:50;;;;;;;0.63;0.30;;;19.30;32.00;;;;;;5026662;28;20033;-51
2023/01/19 06:28:16;;;;;;;0.90;0.45;;;19.20;32.00;;;;;;5019950;28;20064;-54
2023/01/19 06:30:44;;;;;;;1.17;0.40;;;19.30;32.00;;;;;;5021887;28;20069;-52
2023/01/19 06:33:10;;;;;;;1.30;0.40;;;19.20;32.00;;;;;;5021050;28;20069;-52
2023/01/19 06:35:36;;;;;;;2.65;0.55;;;19.20;32.00;;;;;;5020336;28;20061;-50
2023/01/19 06:38:02;;;;;;;2.00;0.57;;;19.20;32.00;;;;;;5023168;28;20064;-52
2023/01/19 06:40:28;;;;;;;1.80;0.40;;;19.20;32.10;;;;;;5023285;28;20033;-54
2023/01/19 06:42:54;;;;;;;1.00;0.40;;;19.20;32.10;;;;;;5023897;28;20026;-51
2023/01/19 06:45:19;;;;;;;1.70;0.40;;;19.20;32.10;;;;;;5019978;28;20055;-53
2023/01/19 06:47:48;;;;;;;1.27;0.63;;;19.20;32.20;;;;;;5018226;28;20381;-55
2023/01/19 06:50:14;;;;;;;1.55;0.50;;;19.20;32.10;;;;;;5025193;28;20393;-55
2023/01/19 06:52:41;;;;;;;3.55;0.60;;;19.20;32.20;;;;;;5020820;28;20457;-51
2023/01/19 06:55:10;;;;;;;1.65;0.43;;;19.20;32.20;;;;;;5023712;28;20033;-52
2023/01/19 06:57:37;;;;;;;1.73;0.57;;;19.10;32.20;;;;;;5020975;28;20029;-53
2023/01/19 07:00:06;;;;;;;1.85;0.50;;;19.10;32.20;;;;;;5025684;28;20022;-55
2023/01/19 07:02:34;;;;;;;1.48;0.50;;;19.10;32.20;;;;;;5017376;28;20018;-54
2023/01/19 07:04:59;;;;;;;2.05;0.57;;;19.10;32.30;;;;;;5026694;28;20025;-53
2023/01/19 07:07:26;;;;;;;1.30;0.60;;;19.10;32.30;;;;;;5023735;28;20496;-52
2023/01/19 07:09:52;;;;;;;2.67;0.63;;;19.10;32.30;;;;;;5033280;28;20034;-53
2023/01/19 07:12:17;;;;;;;1.25;0.47;;;19.10;32.30;;;;;;5031561;28;20048;-50
2023/01/19 07:14:43;;;;;;;4.20;0.80;;;19.10;32.40;;;;;;5024239;28;20120;-53
2023/01/19 07:17:11;;;;;;;1.35;0.55;;;19.10;32.40;;;;;;5020806;28;20025;-56
2023/01/19 07:19:36;;;;;;;1.80;0.60;;;19.10;32.40;;;;;;5009113;28;20053;-55
2023/01/19 07:22:02;;;;;;;1.85;0.70;;;19.10;32.40;;;;;;5026891;28;20041;-55
2023/01/19 07:24:29;;;;;;;1.60;0.70;;;19.10;32.40;;;;;;5014556;28;20044;-52
2023/01/19 07:26:55;;;;;;;1.63;0.57;;;19.10;32.40;;;;;;5032725;28;20033;-50
2023/01/19 07:29:21;;;;;;;2.58;0.60;;;19.10;32.40;;;;;;5015300;28;20037;-53
2023/01/19 07:31:49;;;;;;;1.58;0.70;;;19.10;32.40;;;;;;5035151;28;20041;-52
2023/01/19 07:34:15;;;;;;;1.35;0.50;;;19.20;32.50;;;;;;5047521;28;20025;-54
2023/01/19 07:36:45;;;;;;;3.05;0.63;;;19.20;32.50;;;;;;5033291;28;20104;-54
2023/01/19 07:39:11;;;;;;;2.95;0.80;;;19.20;32.50;;;;;;5019826;28;20112;-52
2023/01/19 07:41:37;;;;;;;2.30;0.73;;;19.20;32.50;;;;;;5029608;28;20452;-53
2023/01/19 07:44:06;;;;;;;2.72;0.65;;;19.20;32.60;;;;;;5023445;28;20021;-53
2023/01/19 07:46:31;;;;;;;1.90;0.60;;;19.30;32.60;;;;;;5032047;28;20029;-53
2023/01/19 07:48:57;;;;;;;1.20;0.60;;;19.30;32.60;;;;;;5032507;28;20025;-54
2023/01/19 07:51:23;;;;;;;3.15;0.90;;;19.30;32.70;;;;;;5030588;28;20073;-53
2023/01/19 07:53:50;;;;;;;1.77;0.55;;;19.40;32.70;;;;;;5032188;28;20060;-51
2023/01/19 07:56:16;;;;;;;8.48;0.77;;;19.40;32.60;;;;;;5032492;28;20021;-50
2023/01/19 07:58:42;;;;;;;2.25;0.65;;;19.50;32.60;;;;;;5032694;28;20033;-53
2023/01/19 08:01:10;;;;;;;0.98;0.52;;;19.60;32.60;;;;;;5035823;28;20025;-53
2023/01/19 08:03:36;;;;;;;1.30;0.60;;;19.60;32.50;;;;;;5035802;28;20167;-50
2023/01/19 08:06:03;;;;;;;2.58;0.70;;;19.70;32.40;;;;;;5034983;28;20148;-51
2023/01/19 08:08:31;;;;;;;1.92;0.55;;;19.80;32.40;;;;;;5034356;28;20449;-53
2023/01/19 08:10:57;;;;;;;1.48;0.63;;;19.90;32.40;;;;;;5035465;28;20449;-51
2023/01/19 08:13:23;;;;;;;2.47;0.57;;;19.90;32.30;;;;;;5035389;28;20029;-52
2023/01/19 08:15:51;;;;;;;2.05;0.50;;;20.00;32.30;;;;;;5041628;28;20043;-52
2023/01/19 08:18:17;;;;;;;2.72;0.70;;;20.10;32.20;;;;;;5044557;28;20035;-55
2023/01/19 08:20:43;;;;;;;3.03;0.90;;;20.10;32.10;;;;;;5043900;28;20056;-55
2023/01/19 08:23:09;;;;;;;1.48;0.47;;;20.20;32.00;;;;;;5044565;28;20021;-53
2023/01/19 08:25:38;;;;;;;2.30;0.70;;;20.30;32.00;;;;;;5043373;28;20022;-57
2023/01/19 08:28:05;;;;;;;2.03;0.80;;;20.30;31.80;;;;;;5030493;28;20036;-55
2023/01/19 08:30:32;;;;;;;2.88;0.80;;;20.40;31.80;;;;;;5035278;28;20037;-56
2023/01/19 08:33:06;;;;;;;2.33;0.65;;;20.50;31.80;;;;;;5034401;28;20507;-54
2023/01/19 08:35:39;;;;;;;2.63;0.80;;;20.50;31.70;;;;;;5032903;28;20028;-55
2023/01/19 08:38:07;;;;;;;2.10;0.80;;;20.60;31.60;;;;;;5032067;28;20029;-56
2023/01/19 08:40:35;;;;;;;1.42;0.60;;;20.70;31.60;;;;;;5034615;28;20037;-55
2023/01/19 08:43:05;;;;;;;2.10;0.70;;;20.80;31.50;;;;;;5035181;28;20087;-56
2023/01/19 08:45:31;;;;;;;1.20;0.50;;;20.80;31.40;;;;;;5034902;28;20029;-56
2023/01/19 08:47:58;;;;;;;2.35;0.50;;;20.90;31.40;;;;;;5034930;28;20025;-52
2023/01/19 08:50:29;;;;;;;2.40;0.77;;;20.90;31.30;;;;;;5034920;28;20038;-56
2023/01/19 08:52:56;;;;;;;1.77;0.60;;;21.00;31.30;;;;;;5032243;28;20083;-56
2023/01/19 08:55:23;;;;;;;1.60;0.43;;;21.00;31.20;;;;;;5034781;28;20468;-54
2023/01/19 08:57:54;;;;;;;1.17;0.60;;;21.10;31.10;;;;;;5034377;28;20033;-56
2023/01/19 09:00:21;;;;;;;2.22;0.60;;;21.20;31.10;;;;;;5025344;28;20103;-56
2023/01/19 09:02:47;;;;;;;1.50;0.80;;;21.20;31.00;;;;;;5034338;28;20346;-56
2023/01/19 09:05:13;;;;;;;2.00;0.80;;;21.30;31.00;;;;;;5033837;28;20099;-56
2023/01/19 09:07:40;;;;;;;2.30;0.85;;;21.30;31.00;;;;;;5033350;28;20119;-54
2023/01/19 09:10:07;;;;;;;2.42;0.75;;;21.40;31.00;;;;;;5034098;28;20072;-55
2023/01/19 09:12:33;;;;;;;2.28;0.70;;;21.40;30.90;;;;;;5032456;28;20029;-56
2023/01/19 09:14:58;;;;;;;1.92;0.70;;;21.50;30.80;;;;;;5034322;28;20091;-53
2023/01/19 09:17:25;;;;;;;2.38;0.90;;;21.50;30.80;;;;;;5032446;28;20064;-57
2023/01/19 09:19:51;;;;;;;2.22;0.88;;;21.50;30.70;;;;;;5033346;28;20162;-55
2023/01/19 09:22:17;;;;;;;1.90;0.82;;;21.60;30.80;;;;;;5034804;28;20068;-58
2023/01/19 09:24:42;;;;;;;2.58;1.00;;;21.60;30.90;;;;;;5033851;28;20061;-53
2023/01/19 09:27:08;;;;;;;1.35;0.73;;;21.60;30.90;;;;;;5033965;28;20040;-55
2023/01/19 09:29:35;;;;;;;2.85;0.98;;;21.70;31.10;;;;;;5034659;28;20026;-57
2023/01/19 09:32:01;;;;;;;0.75;0.60;;;21.70;31.10;;;;;;5034159;28;20346;-56
2023/01/19 09:34:27;;;;;;;1.90;0.75;;;21.70;31.20;;;;;;5034893;28;20043;-53
2023/01/19 09:36:53;;;;;;;3.42;0.80;;;21.80;31.20;;;;;;5033628;28;20352;-57
2023/01/19 09:39:19;;;;;;;2.25;0.80;;;21.70;31.20;;;;;;5034150;28;20029;-54
2023/01/19 09:42:10;;;;;;;2.60;0.80;;;21.80;31.30;;;;;;5025111;28;20444;-55
2023/01/19 09:44:36;;;;;;;2.42;0.95;;;21.80;31.20;;;;;;5017448;28;20445;-56
2023/01/19 09:47:11;;;;;;;1.88;0.77;;;21.80;31.20;;;;;;5022036;28;20033;-53
2023/01/19 09:49:44;;;;;;;1.98;0.60;;;21.80;31.10;;;;;;5027113;28;20054;-54
2023/01/19 09:52:13;;;;;;;2.17;0.88;;;21.80;31.10;;;;;;5026310;28;20053;-57
2023/01/19 09:54:55;;;;;;;1.67;0.77;;;21.80;31.10;;;;;;5032607;28;20033;-52
2023/01/19 09:57:24;;;;;;;4.03;0.95;;;21.80;31.10;;;;;;5033198;28;20025;-53
2023/01/19 09:59:50;;;;;;;2.22;0.70;;;21.80;31.10;;;;;;5033336;28;20099;-55
2023/01/19 10:02:22;;;;;;;1.88;0.63;;;21.80;31.10;;;;;;5033789;28;20041;-54
2023/01/19 10:05:21;;;;;;;1.50;0.70;;;21.80;31.10;;;;;;5031632;28;20037;-54
2023/01/19 10:08:04;;;;;;;2.13;0.77;;;21.80;31.10;;;;;;5036459;28;20112;-55
2023/01/19 10:10:31;;;;;;;2.60;0.90;;;21.80;31.00;;;;;;5031593;28;20461;-55
2023/01/19 10:13:20;;;;;;;4.13;0.90;;;21.80;31.00;;;;;;5033611;28;20063;-54
2023/01/19 10:16:07;;;;;;;1.42;0.60;;;21.80;31.00;;;;;;5032736;28;20052;-56
2023/01/19 10:18:47;;;;;;;2.47;0.82;;;21.80;31.60;;;;;;5031812;28;20025;-57
2023/01/19 10:21:39;;;;;;;2.50;1.08;;;21.80;30.90;;;;;;5033165;28;20028;-58
2023/01/19 10:24:20;;;;;;;1.58;0.77;;;21.80;30.90;;;;;;5031694;28;20026;-55
2023/01/19 10:26:51;;;;;;;3.58;1.00;;;21.80;30.90;;;;;;5032203;28;20033;-53
2023/01/19 10:29:36;;;;;;;3.15;1.10;;;21.80;30.80;;;;;;5032798;28;20040;-55
2023/01/19 10:32:18;;;;;;;4.57;0.85;;;21.80;30.80;;;;;;5030288;28;20037;-55
2023/01/19 10:34:45;;;;;;;3.28;0.70;;;21.70;30.80;;;;;;5031515;28;20029;-55
2023/01/19 10:37:35;;;;;;;2.83;0.70;;;21.70;30.80;;;;;;5032889;28;20425;-51
2023/01/19 10:40:10;;;;;;;2.72;0.82;;;21.70;30.80;;;;;;5032868;28;20025;-57
2023/01/19 10:42:38;;;;;;;3.33;1.20;;;21.70;30.80;;;;;;5038159;28;20106;-53
2023/01/19 10:45:19;;;;;;;3.50;1.10;;;21.70;30.80;;;;;;5032872;28;20021;-56
2023/01/19 10:47:47;;;;;;;2.63;0.70;;;21.70;30.80;;;;;;5032036;28;20037;-55
2023/01/19 10:50:25;;;;;;;1.95;1.02;;;21.70;30.80;;;;;;5030920;28;20026;-52
2023/01/19 10:52:54;;;;;;;2.55;0.85;;;21.70;30.90;;;;;;5028276;28;20036;-54
2023/01/19 10:55:36;;;;;;;2.75;0.93;;;21.60;30.80;;;;;;5019038;28;20029;-56
2023/01/19 10:58:04;;;;;;;2.10;0.90;;;21.60;31.00;;;;;;5030020;28;20044;-53
2023/01/19 11:00:41;;;;;;;2.72;0.98;;;21.60;31.30;;;;;;5031806;28;20072;-56
2023/01/19 11:03:30;;;;;;;2.40;0.90;;;21.60;31.50;;;;;;5030459;28;20033;-55
2023/01/19 11:06:29;;;;;;;3.40;1.05;;;21.60;31.70;;;;;;5033158;28;20479;-53
2023/01/19 11:09:18;;;;;;;3.05;1.02;;;21.60;31.60;;;;;;4980441;28;20515;-57
2023/01/19 11:11:50;;;;;;;3.10;0.95;;;21.60;31.60;;;;;;5031745;28;20051;-55
2023/01/19 11:14:24;;;;;;;3.50;0.90;;;21.50;31.60;;;;;;5030536;28;20037;-55
2023/01/19 11:16:55;;;;;;;2.67;0.98;;;21.50;31.70;;;;;;5031196;28;20348;-52
2023/01/19 11:19:28;;;;;;;3.85;1.13;;;21.50;31.70;;;;;;5031523;28;20045;-55
2023/01/19 11:22:20;;;;;;;3.38;0.90;;;21.50;31.70;;;;;;5030662;28;20084;-55
2023/01/19 11:24:47;;;;;;;2.63;0.93;;;21.50;31.70;;;;;;5028942;28;20564;-53
2023/01/19 11:27:16;;;;;;;4.13;1.02;;;21.50;31.70;;;;;;5032365;28;20026;-54
2023/01/19 11:30:06;;;;;;;3.33;1.30;;;21.50;31.70;;;;;;5032521;28;20037;-54
2023/01/19 11:32:35;;;;;;;3.13;1.35;;;21.50;31.70;;;;;;5032545;28;20092;-54
2023/01/19 11:35:21;;;;;;;10.27;1.40;;;21.50;31.70;;;;;;5035061;28;20111;-55
2023/01/19 11:37:47;;;;;;;3.58;0.82;;;21.50;31.70;;;;;;5036253;28;20032;-51
2023/01/19 11:40:15;;;;;;;3.08;1.00;;;21.50;31.70;;;;;;5036306;28;20026;-54
2023/01/19 11:42:43;;;;;;;2.95;1.00;;;21.50;31.70;;;;;;5025575;28;20120;-57
2023/01/19 11:45:16;;;;;;;3.00;1.00;;;21.50;31.80;;;;;;5034753;28;20108;-56
2023/01/19 11:47:44;;;;;;;2.85;1.00;;;21.50;31.80;;;;;;5024343;28;20037;-55
2023/01/19 11:50:39;;;;;;;4.13;1.25;;;21.50;31.80;;;;;;5032133;28;20036;-55
2023/01/19 11:53:24;;;;;;;;;;;21.50;31.70;;;;;;5024825;28;20383;-54
2023/01/19 11:55:57;;;;;;;7.63;1.30;;;21.40;31.70;;;;;;5036437;28;20000;-54
2023/01/19 11:58:25;;;;;;;3.22;1.10;;;21.50;31.70;;;;;;5031105;28;20802;-55
2023/01/19 12:01:07;;;;;;;2.65;1.10;;;21.40;31.60;;;;;;5030365;28;20026;-53
2023/01/19 12:03:38;;;;;;;3.15;1.00;;;21.40;31.60;;;;;;5030813;28;20021;-53
2023/01/19 12:06:12;;;;;;;3.05;1.05;;;21.40;31.60;;;;;;5033840;28;20033;-60
2023/01/19 12:08:41;;;;;;;3.47;0.98;;;21.40;31.60;;;;;;5031622;28;20025;-50
2023/01/19 12:11:12;;;;;;;2.65;1.05;;;21.40;31.60;;;;;;5034810;28;20365;-55
2023/01/19 12:13:40;;;;;;;4.07;1.35;;;21.40;31.80;;;;;;5035756;28;20044;-55
2023/01/19 12:16:21;;;;;;;3.53;1.10;;;21.40;31.90;;;;;;5035179;28;20041;-56
2023/01/19 12:19:14;;;;;;;3.58;1.52;;;21.40;31.90;;;;;;5034093;28;20017;-51
2023/01/19 12:21:41;;;;;;;3.72;1.23;;;21.40;31.90;;;;;;5022466;28;20106;-55
2023/01/19 12:24:27;;;;;;;3.17;1.45;;;21.40;31.80;;;;;;5035132;28;20021;-50
2023/01/19 12:26:59;;;;;;;3.13;1.33;;;21.40;31.80;;;;;;5034302;28;20078;-52
2023/01/19 12:29:29;;;;;;;7.40;1.90;;;21.40;31.70;;;;;;5034892;28;20048;-52
2023/01/19 12:32:15;;;;;;;4.18;1.67;;;21.40;31.70;;;;;;5034180;28;20048;-51
2023/01/19 12:34:45;;;;;;;5.85;1.75;;;21.40;31.70;;;;;;5033517;28;20044;-54
2023/01/19 12:37:29;;;;;;;3.20;1.70;;;21.40;31.80;;;;;;5033086;28;20033;-57
2023/01/19 12:39:57;;;;;;;4.70;1.80;;;21.40;31.90;;;;;;5033804;28;20029;-54
2023/01/19 12:42:26;;;;;;;5.32;1.67;;;21.40;32.00;;;;;;5033957;28;20025;-52
2023/01/19 12:45:08;;;;;;;4.32;1.85;;;21.40;31.90;;;;;;5034418;28;20064;-50
2023/01/19 12:47:36;;;;;;;3.88;1.58;;;21.40;31.90;;;;;;5034423;28;20117;-52
2023/01/19 12:50:15;;;;;;;3.95;1.65;;;21.40;31.90;;;;;;5034403;28;20373;-56
2023/01/19 12:52:50;;;;;;;3.35;1.80;;;21.40;31.80;;;;;;5034609;28;20080;-54
2023/01/19 12:55:23;;;;;;;5.93;2.03;;;21.40;31.80;;;;;;5035016;28;20036;-55
2023/01/19 12:58:20;;;;;;;4.25;1.70;;;21.40;31.80;;;;;;5025275;28;20049;-54
2023/01/19 13:01:09;;;;;;;3.17;1.70;;;21.30;31.70;;;;;;5026338;28;20080;-56
2023/01/19 13:04:08;;;;;;;4.15;1.83;;;21.30;31.70;;;;;;5017813;28;20034;-53
2023/01/19 13:06:48;;;;;;;3.60;1.50;;;21.30;31.60;;;;;;5023333;28;20415;-55
2023/01/19 13:09:31;;;;;;;4.95;1.80;;;21.40;31.60;;;;;;5018784;28;20049;-54
2023/01/19 13:12:09;;;;;;;4.15;1.60;;;21.30;31.50;;;;;;5020920;28;20038;-54
2023/01/19 13:14:36;;;;;;;3.20;1.30;;;21.30;31.50;;;;;;5025462;28;20088;-51
2023/01/19 13:17:25;;;;;;;4.00;1.50;;;21.30;32.10;;;;;;5016094;28;20087;-52